sensor_id;sensor_type;location;lat;lon;timestamp;P1;durP1;ratioP1;P2;durP2;ratioP2
68579;SDS011;55555;52.136;5.424;2022-11-18T00:01:19;9.55;;;3.75;;
68579;SDS011;55555;52.136;5.424;2022-11-18T00:03:49;13.20;;;3.88;;
68579;SDS011;55555;52.136;5.424;2022-11-18T00:06:19;14.40;;;4.68;;
68579;SDS011;55555;52.136;5.424;2022-11-18T00:08:52;14.63;;;4.57;;
68579;SDS011;55555;52.136;5.424;2022-11-18T00:11:21;13.10;;;4.90;;
68579;SDS011;55555;52.136;5.424;2022-11-18T00:14:13;10.80;;;5.13;;
68579;SDS011;55555;52.136;5.424;2022-11-18T00:19:36;10.98;;;4.25;;
68579;SDS011;55555;52.136;5.424;2022-11-18T00:22:06;11.13;;;4.93;;
68579;SDS011;55555;52.136;5.424;2022-11-18T00:24:38;18.33;;;4.73;;
68579;SDS011;55555;52.136;5.424;2022-11-18T00:27:05;11.73;;;4.20;;
68579;SDS011;55555;52.136;5.424;2022-11-18T00:29:33;12.45;;;4.55;;
68579;SDS011;55555;52.136;5.424;2022-11-18T00:32:01;12.25;;;5.10;;
68579;SDS011;55555;52.136;5.424;2022-11-18T00:34:29;20.65;;;5.25;;
68579;SDS011;55555;52.136;5.424;2022-11-18T00:36:57;13.33;;;4.60;;
68579;SDS011;55555;52.136;5.424;2022-11-18T00:39:24;11.13;;;4.50;;
68579;SDS011;55555;52.136;5.424;2022-11-18T00:41:52;12.32;;;4.57;;
68579;SDS011;55555;52.136;5.424;2022-11-18T00:44:38;14.18;;;4.50;;
68579;SDS011;55555;52.136;5.424;2022-11-18T00:47:06;14.05;;;4.30;;
68579;SDS011;55555;52.136;5.424;2022-11-18T00:49:34;13.57;;;4.67;;
68579;SDS011;55555;52.136;5.424;2022-11-18T00:52:02;12.20;;;4.45;;
68579;SDS011;55555;52.136;5.424;2022-11-18T00:54:30;13.27;;;4.40;;
68579;SDS011;55555;52.136;5.424;2022-11-18T00:56:57;13.20;;;5.03;;
68579;SDS011;55555;52.136;5.424;2022-11-18T00:59:25;16.60;;;5.05;;
68579;SDS011;55555;52.136;5.424;2022-11-18T01:01:53;11.00;;;4.47;;
68579;SDS011;55555;52.136;5.424;2022-11-18T01:04:21;11.43;;;4.55;;
68579;SDS011;55555;52.136;5.424;2022-11-18T01:06:49;11.85;;;4.50;;
68579;SDS011;55555;52.136;5.424;2022-11-18T01:09:17;12.10;;;4.40;;
68579;SDS011;55555;52.136;5.424;2022-11-18T01:11:45;16.98;;;4.75;;
68579;SDS011;55555;52.136;5.424;2022-11-18T01:14:31;13.23;;;4.97;;
68579;SDS011;55555;52.136;5.424;2022-11-18T01:16:59;12.40;;;4.57;;
68579;SDS011;55555;52.136;5.424;2022-11-18T01:19:27;13.75;;;4.43;;
68579;SDS011;55555;52.136;5.424;2022-11-18T01:21:55;13.93;;;4.72;;
68579;SDS011;55555;52.136;5.424;2022-11-18T01:24:25;13.07;;;5.05;;
68579;SDS011;55555;52.136;5.424;2022-11-18T01:26:53;12.93;;;4.53;;
68579;SDS011;55555;52.136;5.424;2022-11-18T01:29:20;13.60;;;4.63;;
68579;SDS011;55555;52.136;5.424;2022-11-18T01:31:48;16.83;;;4.82;;
68579;SDS011;55555;52.136;5.424;2022-11-18T01:34:36;11.48;;;5.20;;
68579;SDS011;55555;52.136;5.424;2022-11-18T01:37:03;18.45;;;5.13;;
68579;SDS011;55555;52.136;5.424;2022-11-18T01:39:31;16.67;;;5.07;;
68579;SDS011;55555;52.136;5.424;2022-11-18T01:41:59;13.00;;;5.50;;
68579;SDS011;55555;52.136;5.424;2022-11-18T01:47:22;13.30;;;4.70;;
68579;SDS011;55555;52.136;5.424;2022-11-18T01:49:52;15.27;;;4.60;;
68579;SDS011;55555;52.136;5.424;2022-11-18T01:52:20;15.30;;;5.53;;
68579;SDS011;55555;52.136;5.424;2022-11-18T01:54:50;13.73;;;5.18;;
68579;SDS011;55555;52.136;5.424;2022-11-18T02:00:18;14.50;;;5.50;;
68579;SDS011;55555;52.136;5.424;2022-11-18T02:02:46;15.68;;;5.75;;
68579;SDS011;55555;52.136;5.424;2022-11-18T02:05:15;16.87;;;5.90;;
68579;SDS011;55555;52.136;5.424;2022-11-18T02:07:43;17.75;;;5.53;;
68579;SDS011;55555;52.136;5.424;2022-11-18T02:10:16;14.07;;;5.32;;
68579;SDS011;55555;52.136;5.424;2022-11-18T02:12:51;13.68;;;6.07;;
68579;SDS011;55555;52.136;5.424;2022-11-18T02:15:32;12.75;;;4.95;;
68579;SDS011;55555;52.136;5.424;2022-11-18T02:18:13;12.33;;;5.43;;
68579;SDS011;55555;52.136;5.424;2022-11-18T02:21:04;15.23;;;5.53;;
68579;SDS011;55555;52.136;5.424;2022-11-18T02:30:03;16.45;;;5.53;;
68579;SDS011;55555;52.136;5.424;2022-11-18T02:35:16;16.23;;;5.82;;
68579;SDS011;55555;52.136;5.424;2022-11-18T02:38:07;15.20;;;5.78;;
68579;SDS011;55555;52.136;5.424;2022-11-18T02:40:46;15.27;;;6.47;;
68579;SDS011;55555;52.136;5.424;2022-11-18T02:43:30;14.13;;;5.93;;
68579;SDS011;55555;52.136;5.424;2022-11-18T02:46:05;18.20;;;6.30;;
68579;SDS011;55555;52.136;5.424;2022-11-18T02:48:40;17.63;;;6.65;;
68579;SDS011;55555;52.136;5.424;2022-11-18T02:51:14;15.77;;;5.95;;
68579;SDS011;55555;52.136;5.424;2022-11-18T02:53:47;16.02;;;6.45;;
68579;SDS011;55555;52.136;5.424;2022-11-18T02:56:17;17.92;;;6.90;;
68579;SDS011;55555;52.136;5.424;2022-11-18T02:58:46;15.43;;;6.97;;
68579;SDS011;55555;52.136;5.424;2022-11-18T03:01:18;17.38;;;6.70;;
68579;SDS011;55555;52.136;5.424;2022-11-18T03:03:51;21.80;;;6.60;;
68579;SDS011;55555;52.136;5.424;2022-11-18T03:06:25;20.10;;;6.97;;
68579;SDS011;55555;52.136;5.424;2022-11-18T03:14:51;20.75;;;6.75;;
68579;SDS011;55555;52.136;5.424;2022-11-18T03:17:54;18.73;;;7.10;;
68579;SDS011;55555;52.136;5.424;2022-11-18T03:20:46;20.08;;;7.28;;
68579;SDS011;55555;52.136;5.424;2022-11-18T03:24:10;20.63;;;7.15;;
68579;SDS011;55555;52.136;5.424;2022-11-18T03:26:43;14.40;;;6.90;;
68579;SDS011;55555;52.136;5.424;2022-11-18T03:29:18;20.58;;;6.65;;
68579;SDS011;55555;52.136;5.424;2022-11-18T03:31:59;18.95;;;7.20;;
68579;SDS011;55555;52.136;5.424;2022-11-18T03:34:48;21.40;;;7.68;;
68579;SDS011;55555;52.136;5.424;2022-11-18T03:37:23;13.00;;;6.03;;
68579;SDS011;55555;52.136;5.424;2022-11-18T03:39:53;18.60;;;7.33;;
68579;SDS011;55555;52.136;5.424;2022-11-18T03:43:10;16.08;;;6.85;;
68579;SDS011;55555;52.136;5.424;2022-11-18T03:45:46;21.85;;;6.93;;
68579;SDS011;55555;52.136;5.424;2022-11-18T03:48:28;19.55;;;6.32;;
68579;SDS011;55555;52.136;5.424;2022-11-18T03:51:06;20.58;;;7.75;;
68579;SDS011;55555;52.136;5.424;2022-11-18T03:53:42;19.20;;;7.37;;
68579;SDS011;55555;52.136;5.424;2022-11-18T03:56:19;17.60;;;6.53;;
68579;SDS011;55555;52.136;5.424;2022-11-18T03:59:01;17.50;;;7.10;;
68579;SDS011;55555;52.136;5.424;2022-11-18T04:01:35;15.20;;;6.82;;
68579;SDS011;55555;52.136;5.424;2022-11-18T04:04:10;16.63;;;6.65;;
68579;SDS011;55555;52.136;5.424;2022-11-18T04:06:49;17.83;;;7.23;;
68579;SDS011;55555;52.136;5.424;2022-11-18T04:09:26;18.65;;;7.68;;
68579;SDS011;55555;52.136;5.424;2022-11-18T04:12:02;21.48;;;7.20;;
68579;SDS011;55555;52.136;5.424;2022-11-18T04:14:37;18.42;;;6.93;;
68579;SDS011;55555;52.136;5.424;2022-11-18T04:17:08;19.73;;;7.15;;
68579;SDS011;55555;52.136;5.424;2022-11-18T04:19:39;16.13;;;6.53;;
68579;SDS011;55555;52.136;5.424;2022-11-18T04:22:08;16.98;;;7.03;;
68579;SDS011;55555;52.136;5.424;2022-11-18T04:24:37;19.23;;;7.13;;
68579;SDS011;55555;52.136;5.424;2022-11-18T04:27:05;16.35;;;6.10;;
68579;SDS011;55555;52.136;5.424;2022-11-18T04:29:33;22.95;;;6.57;;
68579;SDS011;55555;52.136;5.424;2022-11-18T04:32:02;14.57;;;6.27;;
68579;SDS011;55555;52.136;5.424;2022-11-18T04:34:31;18.73;;;6.30;;
68579;SDS011;55555;52.136;5.424;2022-11-18T04:36:59;13.10;;;5.85;;
68579;SDS011;55555;52.136;5.424;2022-11-18T04:39:26;15.30;;;6.13;;
68579;SDS011;55555;52.136;5.424;2022-11-18T04:41:54;13.48;;;6.00;;
68579;SDS011;55555;52.136;5.424;2022-11-18T04:44:26;20.73;;;6.07;;
68579;SDS011;55555;52.136;5.424;2022-11-18T04:46:56;19.70;;;7.40;;
68579;SDS011;55555;52.136;5.424;2022-11-18T04:49:27;16.42;;;5.68;;
68579;SDS011;55555;52.136;5.424;2022-11-18T04:51:55;16.75;;;7.03;;
68579;SDS011;55555;52.136;5.424;2022-11-18T04:54:24;18.88;;;6.70;;
68579;SDS011;55555;52.136;5.424;2022-11-18T04:56:53;15.77;;;7.23;;
68579;SDS011;55555;52.136;5.424;2022-11-18T04:59:23;22.33;;;8.00;;
68579;SDS011;55555;52.136;5.424;2022-11-18T05:01:53;21.52;;;7.28;;
68579;SDS011;55555;52.136;5.424;2022-11-18T05:04:23;16.98;;;7.25;;
68579;SDS011;55555;52.136;5.424;2022-11-18T05:06:53;16.02;;;6.70;;
68579;SDS011;55555;52.136;5.424;2022-11-18T05:09:21;14.97;;;6.03;;
68579;SDS011;55555;52.136;5.424;2022-11-18T05:11:57;22.02;;;7.82;;
68579;SDS011;55555;52.136;5.424;2022-11-18T05:14:43;22.10;;;6.95;;
68579;SDS011;55555;52.136;5.424;2022-11-18T05:17:16;19.25;;;7.32;;
68579;SDS011;55555;52.136;5.424;2022-11-18T05:19:45;19.67;;;7.55;;
68579;SDS011;55555;52.136;5.424;2022-11-18T05:22:13;13.90;;;6.67;;
68579;SDS011;55555;52.136;5.424;2022-11-18T05:24:41;27.10;;;7.75;;
68579;SDS011;55555;52.136;5.424;2022-11-18T05:27:09;21.42;;;7.43;;
68579;SDS011;55555;52.136;5.424;2022-11-18T05:29:37;24.65;;;8.00;;
68579;SDS011;55555;52.136;5.424;2022-11-18T05:32:05;21.25;;;7.40;;
68579;SDS011;55555;52.136;5.424;2022-11-18T05:34:33;25.50;;;8.40;;
68579;SDS011;55555;52.136;5.424;2022-11-18T05:37:01;18.15;;;7.80;;
68579;SDS011;55555;52.136;5.424;2022-11-18T05:39:28;17.92;;;7.30;;
68579;SDS011;55555;52.136;5.424;2022-11-18T05:41:57;19.10;;;8.15;;
68579;SDS011;55555;52.136;5.424;2022-11-18T05:44:43;16.15;;;7.15;;
68579;SDS011;55555;52.136;5.424;2022-11-18T05:47:11;23.17;;;8.10;;
68579;SDS011;55555;52.136;5.424;2022-11-18T05:49:40;19.00;;;7.65;;
68579;SDS011;55555;52.136;5.424;2022-11-18T05:52:07;20.23;;;8.15;;
68579;SDS011;55555;52.136;5.424;2022-11-18T05:54:40;17.25;;;7.72;;
68579;SDS011;55555;52.136;5.424;2022-11-18T05:57:16;20.42;;;7.47;;
68579;SDS011;55555;52.136;5.424;2022-11-18T05:59:43;25.77;;;7.53;;
68579;SDS011;55555;52.136;5.424;2022-11-18T06:02:13;16.50;;;6.90;;
68579;SDS011;55555;52.136;5.424;2022-11-18T06:04:48;25.13;;;7.93;;
68579;SDS011;55555;52.136;5.424;2022-11-18T06:07:22;19.02;;;7.45;;
68579;SDS011;55555;52.136;5.424;2022-11-18T06:09:57;17.20;;;6.95;;
68579;SDS011;55555;52.136;5.424;2022-11-18T06:12:33;21.17;;;7.30;;
68579;SDS011;55555;52.136;5.424;2022-11-18T06:15:25;20.38;;;7.53;;
68579;SDS011;55555;52.136;5.424;2022-11-18T06:18:05;23.20;;;7.80;;
68579;SDS011;55555;52.136;5.424;2022-11-18T06:20:50;21.60;;;7.82;;
68579;SDS011;55555;52.136;5.424;2022-11-18T06:23:22;26.50;;;7.43;;
68579;SDS011;55555;52.136;5.424;2022-11-18T06:25:50;17.60;;;7.13;;
68579;SDS011;55555;52.136;5.424;2022-11-18T06:28:18;18.00;;;7.15;;
68579;SDS011;55555;52.136;5.424;2022-11-18T06:30:46;23.88;;;7.75;;
68579;SDS011;55555;52.136;5.424;2022-11-18T06:33:14;22.50;;;7.40;;
68579;SDS011;55555;52.136;5.424;2022-11-18T06:35:42;19.75;;;7.65;;
68579;SDS011;55555;52.136;5.424;2022-11-18T06:38:10;25.17;;;8.47;;
68579;SDS011;55555;52.136;5.424;2022-11-18T06:40:37;21.30;;;7.95;;
68579;SDS011;55555;52.136;5.424;2022-11-18T06:43:08;22.02;;;8.30;;
68579;SDS011;55555;52.136;5.424;2022-11-18T06:46:14;26.80;;;8.10;;
68579;SDS011;55555;52.136;5.424;2022-11-18T06:49:02;18.05;;;7.97;;
68579;SDS011;55555;52.136;5.424;2022-11-18T06:51:30;28.27;;;8.77;;
68579;SDS011;55555;52.136;5.424;2022-11-18T06:53:58;25.33;;;7.63;;
68579;SDS011;55555;52.136;5.424;2022-11-18T06:56:26;21.83;;;8.15;;
68579;SDS011;55555;52.136;5.424;2022-11-18T06:58:55;20.30;;;7.22;;
68579;SDS011;55555;52.136;5.424;2022-11-18T07:01:25;17.25;;;8.35;;
68579;SDS011;55555;52.136;5.424;2022-11-18T07:03:56;19.03;;;7.67;;
68579;SDS011;55555;52.136;5.424;2022-11-18T07:06:27;20.00;;;7.32;;
68579;SDS011;55555;52.136;5.424;2022-11-18T07:09:01;28.00;;;7.32;;
68579;SDS011;55555;52.136;5.424;2022-11-18T07:11:31;27.90;;;8.20;;
68579;SDS011;55555;52.136;5.424;2022-11-18T07:13:59;24.63;;;8.35;;
68579;SDS011;55555;52.136;5.424;2022-11-18T07:16:27;19.23;;;8.17;;
68579;SDS011;55555;52.136;5.424;2022-11-18T07:18:55;28.17;;;8.70;;
68579;SDS011;55555;52.136;5.424;2022-11-18T07:21:27;24.25;;;8.65;;
68579;SDS011;55555;52.136;5.424;2022-11-18T07:23:55;19.20;;;7.95;;
68579;SDS011;55555;52.136;5.424;2022-11-18T07:26:23;23.02;;;9.02;;
68579;SDS011;55555;52.136;5.424;2022-11-18T07:28:51;23.83;;;9.00;;
68579;SDS011;55555;52.136;5.424;2022-11-18T07:31:20;20.60;;;8.35;;
68579;SDS011;55555;52.136;5.424;2022-11-18T07:33:47;21.30;;;8.48;;
68579;SDS011;55555;52.136;5.424;2022-11-18T07:36:16;27.73;;;8.75;;
68579;SDS011;55555;52.136;5.424;2022-11-18T07:38:47;26.30;;;8.93;;
68579;SDS011;55555;52.136;5.424;2022-11-18T07:41:16;22.63;;;8.80;;
68579;SDS011;55555;52.136;5.424;2022-11-18T07:43:50;28.05;;;8.95;;
68579;SDS011;55555;52.136;5.424;2022-11-18T07:46:30;19.95;;;8.00;;
68579;SDS011;55555;52.136;5.424;2022-11-18T07:49:02;22.63;;;8.48;;
68579;SDS011;55555;52.136;5.424;2022-11-18T07:51:33;25.48;;;8.23;;
68579;SDS011;55555;52.136;5.424;2022-11-18T07:54:05;20.83;;;7.97;;
68579;SDS011;55555;52.136;5.424;2022-11-18T07:56:35;27.58;;;8.55;;
68579;SDS011;55555;52.136;5.424;2022-11-18T07:59:03;21.90;;;8.43;;
68579;SDS011;55555;52.136;5.424;2022-11-18T08:01:31;24.67;;;8.00;;
68579;SDS011;55555;52.136;5.424;2022-11-18T08:04:07;20.38;;;8.93;;
68579;SDS011;55555;52.136;5.424;2022-11-18T08:06:37;22.10;;;8.70;;
68579;SDS011;55555;52.136;5.424;2022-11-18T08:09:06;21.85;;;8.38;;
68579;SDS011;55555;52.136;5.424;2022-11-18T08:11:34;16.73;;;7.90;;
68579;SDS011;55555;52.136;5.424;2022-11-18T08:14:02;21.50;;;8.40;;
68579;SDS011;55555;52.136;5.424;2022-11-18T08:16:30;21.55;;;7.93;;
68579;SDS011;55555;52.136;5.424;2022-11-18T08:18:58;22.77;;;7.90;;
68579;SDS011;55555;52.136;5.424;2022-11-18T08:21:26;23.75;;;8.95;;
68579;SDS011;55555;52.136;5.424;2022-11-18T08:23:55;17.27;;;7.43;;
68579;SDS011;55555;52.136;5.424;2022-11-18T08:26:24;22.55;;;7.55;;
68579;SDS011;55555;52.136;5.424;2022-11-18T08:28:52;22.58;;;8.25;;
68579;SDS011;55555;52.136;5.424;2022-11-18T08:31:22;17.43;;;6.97;;
68579;SDS011;55555;52.136;5.424;2022-11-18T08:36:28;20.65;;;7.47;;
68579;SDS011;55555;52.136;5.424;2022-11-18T08:38:59;18.05;;;7.30;;
68579;SDS011;55555;52.136;5.424;2022-11-18T08:44:12;17.07;;;8.07;;
68579;SDS011;55555;52.136;5.424;2022-11-18T08:46:41;17.55;;;7.28;;
68579;SDS011;55555;52.136;5.424;2022-11-18T08:49:13;17.75;;;7.72;;
68579;SDS011;55555;52.136;5.424;2022-11-18T08:51:41;16.15;;;7.53;;
68579;SDS011;55555;52.136;5.424;2022-11-18T08:54:08;18.27;;;7.15;;
68579;SDS011;55555;52.136;5.424;2022-11-18T08:56:36;20.60;;;7.30;;
68579;SDS011;55555;52.136;5.424;2022-11-18T08:59:04;21.65;;;6.75;;
68579;SDS011;55555;52.136;5.424;2022-11-18T09:01:37;17.90;;;6.97;;
68579;SDS011;55555;52.136;5.424;2022-11-18T09:04:07;13.27;;;6.43;;
68579;SDS011;55555;52.136;5.424;2022-11-18T09:06:36;16.92;;;6.97;;
68579;SDS011;55555;52.136;5.424;2022-11-18T09:09:06;14.63;;;6.47;;
68579;SDS011;55555;52.136;5.424;2022-11-18T09:11:34;12.73;;;6.70;;
68579;SDS011;55555;52.136;5.424;2022-11-18T09:14:04;14.27;;;5.95;;
68579;SDS011;55555;52.136;5.424;2022-11-18T09:16:52;15.80;;;6.63;;
68579;SDS011;55555;52.136;5.424;2022-11-18T09:19:20;14.65;;;6.57;;
68579;SDS011;55555;52.136;5.424;2022-11-18T09:22:07;14.43;;;6.27;;
68579;SDS011;55555;52.136;5.424;2022-11-18T09:24:35;17.05;;;6.20;;
68579;SDS011;55555;52.136;5.424;2022-11-18T09:27:04;13.02;;;5.65;;
68579;SDS011;55555;52.136;5.424;2022-11-18T09:29:42;13.60;;;6.57;;
68579;SDS011;55555;52.136;5.424;2022-11-18T09:32:10;12.63;;;6.07;;
68579;SDS011;55555;52.136;5.424;2022-11-18T09:34:38;15.70;;;6.43;;
68579;SDS011;55555;52.136;5.424;2022-11-18T09:37:05;19.33;;;6.57;;
68579;SDS011;55555;52.136;5.424;2022-11-18T09:39:34;15.73;;;6.20;;
68579;SDS011;55555;52.136;5.424;2022-11-18T09:47:53;16.23;;;6.40;;
68579;SDS011;55555;52.136;5.424;2022-11-18T09:50:26;12.30;;;6.45;;
68579;SDS011;55555;52.136;5.424;2022-11-18T09:53:21;14.77;;;6.45;;
68579;SDS011;55555;52.136;5.424;2022-11-18T09:55:51;13.68;;;5.63;;
68579;SDS011;55555;52.136;5.424;2022-11-18T09:58:24;15.40;;;6.63;;
68579;SDS011;55555;52.136;5.424;2022-11-18T10:01:00;11.40;;;6.03;;
68579;SDS011;55555;52.136;5.424;2022-11-18T10:03:30;17.40;;;5.85;;
68579;SDS011;55555;52.136;5.424;2022-11-18T10:08:39;16.35;;;5.97;;
68579;SDS011;55555;52.136;5.424;2022-11-18T10:11:27;12.13;;;5.15;;
68579;SDS011;55555;52.136;5.424;2022-11-18T10:14:21;10.07;;;4.80;;
68579;SDS011;55555;52.136;5.424;2022-11-18T10:17:19;12.00;;;5.07;;
68579;SDS011;55555;52.136;5.424;2022-11-18T10:23:02;14.38;;;4.80;;
68579;SDS011;55555;52.136;5.424;2022-11-18T10:25:44;13.45;;;4.97;;
68579;SDS011;55555;52.136;5.424;2022-11-18T10:28:16;13.17;;;5.07;;
68579;SDS011;55555;52.136;5.424;2022-11-18T10:30:51;11.95;;;4.70;;
68579;SDS011;55555;52.136;5.424;2022-11-18T10:36:07;11.95;;;5.13;;
68579;SDS011;55555;52.136;5.424;2022-11-18T10:41:59;12.97;;;5.17;;
68579;SDS011;55555;52.136;5.424;2022-11-18T10:44:39;13.23;;;5.10;;
68579;SDS011;55555;52.136;5.424;2022-11-18T10:47:22;12.43;;;5.78;;
68579;SDS011;55555;52.136;5.424;2022-11-18T10:49:57;15.27;;;4.63;;
68579;SDS011;55555;52.136;5.424;2022-11-18T10:52:51;13.40;;;5.55;;
68579;SDS011;55555;52.136;5.424;2022-11-18T10:55:20;10.93;;;4.47;;
68579;SDS011;55555;52.136;5.424;2022-11-18T10:57:53;15.93;;;5.10;;
68579;SDS011;55555;52.136;5.424;2022-11-18T11:00:34;17.65;;;5.20;;
68579;SDS011;55555;52.136;5.424;2022-11-18T11:03:14;10.50;;;4.65;;
68579;SDS011;55555;52.136;5.424;2022-11-18T11:08:58;15.83;;;4.90;;
68579;SDS011;55555;52.136;5.424;2022-11-18T11:11:55;10.20;;;4.93;;
68579;SDS011;55555;52.136;5.424;2022-11-18T11:14:54;10.90;;;4.93;;
68579;SDS011;55555;52.136;5.424;2022-11-18T11:17:28;13.82;;;5.32;;
68579;SDS011;55555;52.136;5.424;2022-11-18T11:20:02;13.10;;;5.45;;
68579;SDS011;55555;52.136;5.424;2022-11-18T11:22:43;15.07;;;5.00;;
68579;SDS011;55555;52.136;5.424;2022-11-18T11:25:20;12.77;;;4.60;;
68579;SDS011;55555;52.136;5.424;2022-11-18T11:34:46;15.75;;;4.22;;
68579;SDS011;55555;52.136;5.424;2022-11-18T11:37:49;13.47;;;4.93;;
68579;SDS011;55555;52.136;5.424;2022-11-18T11:40:28;10.55;;;4.68;;
68579;SDS011;55555;52.136;5.424;2022-11-18T11:47:06;14.00;;;4.82;;
68579;SDS011;55555;52.136;5.424;2022-11-18T11:56:39;9.65;;;4.32;;
68579;SDS011;55555;52.136;5.424;2022-11-18T12:05:35;13.25;;;4.45;;
68579;SDS011;55555;52.136;5.424;2022-11-18T12:08:10;13.70;;;4.67;;
68579;SDS011;55555;52.136;5.424;2022-11-18T12:19:49;16.95;;;4.93;;
68579;SDS011;55555;52.136;5.424;2022-11-18T12:22:16;14.60;;;6.17;;
68579;SDS011;55555;52.136;5.424;2022-11-18T12:24:44;12.57;;;5.47;;
68579;SDS011;55555;52.136;5.424;2022-11-18T12:30:18;12.20;;;5.50;;
68579;SDS011;55555;52.136;5.424;2022-11-18T12:32:46;11.88;;;5.30;;
68579;SDS011;55555;52.136;5.424;2022-11-18T12:46:57;11.75;;;5.53;;
68579;SDS011;55555;52.136;5.424;2022-11-18T12:51:48;20.13;;;6.70;;
68579;SDS011;55555;52.136;5.424;2022-11-18T12:59:53;17.52;;;7.35;;
68579;SDS011;55555;52.136;5.424;2022-11-18T13:02:25;13.17;;;6.13;;
68579;SDS011;55555;52.136;5.424;2022-11-18T13:05:13;13.32;;;6.13;;
68579;SDS011;55555;52.136;5.424;2022-11-18T13:10:44;18.85;;;7.20;;
68579;SDS011;55555;52.136;5.424;2022-11-18T13:13:27;14.32;;;6.80;;
68579;SDS011;55555;52.136;5.424;2022-11-18T13:16:00;17.50;;;7.03;;
68579;SDS011;55555;52.136;5.424;2022-11-18T13:19:04;11.38;;;6.18;;
68579;SDS011;55555;52.136;5.424;2022-11-18T13:21:32;11.20;;;6.50;;
68579;SDS011;55555;52.136;5.424;2022-11-18T13:24:20;14.18;;;7.68;;
68579;SDS011;55555;52.136;5.424;2022-11-18T13:26:52;15.25;;;7.50;;
68579;SDS011;55555;52.136;5.424;2022-11-18T13:32:26;13.90;;;7.45;;
68579;SDS011;55555;52.136;5.424;2022-11-18T13:34:57;13.15;;;6.50;;
68579;SDS011;55555;52.136;5.424;2022-11-18T13:37:48;18.77;;;8.73;;
68579;SDS011;55555;52.136;5.424;2022-11-18T13:40:23;11.75;;;7.78;;
68579;SDS011;55555;52.136;5.424;2022-11-18T13:42:56;15.87;;;7.60;;
68579;SDS011;55555;52.136;5.424;2022-11-18T13:45:25;16.17;;;7.80;;
68579;SDS011;55555;52.136;5.424;2022-11-18T13:47:57;15.60;;;8.30;;
68579;SDS011;55555;52.136;5.424;2022-11-18T13:50:38;17.17;;;8.15;;
68579;SDS011;55555;52.136;5.424;2022-11-18T13:53:51;15.07;;;8.15;;
68579;SDS011;55555;52.136;5.424;2022-11-18T13:56:21;20.80;;;8.23;;
68579;SDS011;55555;52.136;5.424;2022-11-18T13:59:00;13.82;;;8.38;;
68579;SDS011;55555;52.136;5.424;2022-11-18T14:01:43;14.45;;;8.18;;
68579;SDS011;55555;52.136;5.424;2022-11-18T14:04:19;21.15;;;8.77;;
68579;SDS011;55555;52.136;5.424;2022-11-18T14:06:53;16.92;;;8.45;;
68579;SDS011;55555;52.136;5.424;2022-11-18T14:10:00;15.20;;;7.90;;
68579;SDS011;55555;52.136;5.424;2022-11-18T14:12:33;17.05;;;7.90;;
68579;SDS011;55555;52.136;5.424;2022-11-18T14:15:22;17.63;;;8.60;;
68579;SDS011;55555;52.136;5.424;2022-11-18T14:18:17;15.25;;;8.10;;
68579;SDS011;55555;52.136;5.424;2022-11-18T14:20:57;15.60;;;8.38;;
68579;SDS011;55555;52.136;5.424;2022-11-18T14:23:27;16.00;;;8.70;;
68579;SDS011;55555;52.136;5.424;2022-11-18T14:26:00;14.35;;;8.00;;
68579;SDS011;55555;52.136;5.424;2022-11-18T14:28:32;18.23;;;8.77;;
68579;SDS011;55555;52.136;5.424;2022-11-18T14:31:27;17.73;;;8.82;;
68579;SDS011;55555;52.136;5.424;2022-11-18T14:36:55;17.00;;;8.80;;
68579;SDS011;55555;52.136;5.424;2022-11-18T14:41:55;20.48;;;9.13;;
68579;SDS011;55555;52.136;5.424;2022-11-18T14:44:25;19.00;;;8.85;;
68579;SDS011;55555;52.136;5.424;2022-11-18T14:47:01;20.08;;;10.00;;
68579;SDS011;55555;52.136;5.424;2022-11-18T14:49:41;20.57;;;10.63;;
68579;SDS011;55555;52.136;5.424;2022-11-18T14:52:08;21.48;;;9.85;;
68579;SDS011;55555;52.136;5.424;2022-11-18T14:54:36;19.77;;;9.02;;
68579;SDS011;55555;52.136;5.424;2022-11-18T14:57:04;21.90;;;9.45;;
68579;SDS011;55555;52.136;5.424;2022-11-18T14:59:32;20.42;;;10.02;;
68579;SDS011;55555;52.136;5.424;2022-11-18T15:02:00;23.97;;;11.87;;
68579;SDS011;55555;52.136;5.424;2022-11-18T15:04:28;22.45;;;11.93;;
68579;SDS011;55555;52.136;5.424;2022-11-18T15:06:56;17.33;;;10.85;;
68579;SDS011;55555;52.136;5.424;2022-11-18T15:09:23;25.38;;;10.65;;
68579;SDS011;55555;52.136;5.424;2022-11-18T15:11:51;22.02;;;11.07;;
68579;SDS011;55555;52.136;5.424;2022-11-18T15:14:19;21.07;;;10.37;;
68579;SDS011;55555;52.136;5.424;2022-11-18T15:16:47;25.17;;;10.07;;
68579;SDS011;55555;52.136;5.424;2022-11-18T15:19:15;20.25;;;11.30;;
68579;SDS011;55555;52.136;5.424;2022-11-18T15:21:43;22.73;;;10.82;;
68579;SDS011;55555;52.136;5.424;2022-11-18T15:24:11;19.40;;;10.90;;
68579;SDS011;55555;52.136;5.424;2022-11-18T15:26:40;21.50;;;11.90;;
68579;SDS011;55555;52.136;5.424;2022-11-18T15:29:15;20.55;;;11.13;;
68579;SDS011;55555;52.136;5.424;2022-11-18T15:31:48;19.90;;;10.52;;
68579;SDS011;55555;52.136;5.424;2022-11-18T15:34:17;22.13;;;11.85;;
68579;SDS011;55555;52.136;5.424;2022-11-18T15:36:47;19.85;;;11.68;;
68579;SDS011;55555;52.136;5.424;2022-11-18T15:39:16;21.77;;;11.30;;
68579;SDS011;55555;52.136;5.424;2022-11-18T15:41:43;23.15;;;12.40;;
68579;SDS011;55555;52.136;5.424;2022-11-18T15:44:11;21.13;;;11.43;;
68579;SDS011;55555;52.136;5.424;2022-11-18T15:46:39;26.08;;;12.02;;
68579;SDS011;55555;52.136;5.424;2022-11-18T15:49:09;23.05;;;12.02;;
68579;SDS011;55555;52.136;5.424;2022-11-18T15:51:40;21.93;;;12.43;;
68579;SDS011;55555;52.136;5.424;2022-11-18T15:54:07;24.35;;;13.35;;
68579;SDS011;55555;52.136;5.424;2022-11-18T15:56:35;22.83;;;13.20;;
68579;SDS011;55555;52.136;5.424;2022-11-18T15:59:06;20.92;;;11.45;;
68579;SDS011;55555;52.136;5.424;2022-11-18T16:01:38;22.90;;;12.30;;
68579;SDS011;55555;52.136;5.424;2022-11-18T16:04:09;22.97;;;13.20;;
68579;SDS011;55555;52.136;5.424;2022-11-18T16:06:39;25.80;;;13.98;;
68579;SDS011;55555;52.136;5.424;2022-11-18T16:09:09;25.25;;;14.85;;
68579;SDS011;55555;52.136;5.424;2022-11-18T16:11:38;28.20;;;14.90;;
68579;SDS011;55555;52.136;5.424;2022-11-18T16:14:25;28.25;;;14.90;;
68579;SDS011;55555;52.136;5.424;2022-11-18T16:16:53;34.13;;;18.13;;
68579;SDS011;55555;52.136;5.424;2022-11-18T16:19:23;38.58;;;16.40;;
68579;SDS011;55555;52.136;5.424;2022-11-18T16:21:53;33.38;;;17.88;;
68579;SDS011;55555;52.136;5.424;2022-11-18T16:24:24;36.67;;;18.25;;
68579;SDS011;55555;52.136;5.424;2022-11-18T16:26:54;31.77;;;17.77;;
68579;SDS011;55555;52.136;5.424;2022-11-18T16:29:23;32.67;;;17.87;;
68579;SDS011;55555;52.136;5.424;2022-11-18T16:31:51;36.75;;;18.33;;
68579;SDS011;55555;52.136;5.424;2022-11-18T16:34:21;31.23;;;17.70;;
68579;SDS011;55555;52.136;5.424;2022-11-18T16:36:55;34.92;;;21.35;;
68579;SDS011;55555;52.136;5.424;2022-11-18T16:39:27;40.33;;;21.25;;
68579;SDS011;55555;52.136;5.424;2022-11-18T16:41:56;42.40;;;22.47;;
68579;SDS011;55555;52.136;5.424;2022-11-18T16:44:34;41.53;;;23.23;;
68579;SDS011;55555;52.136;5.424;2022-11-18T16:47:03;48.90;;;26.83;;
68579;SDS011;55555;52.136;5.424;2022-11-18T16:49:40;41.83;;;24.73;;
68579;SDS011;55555;52.136;5.424;2022-11-18T16:52:09;47.65;;;26.50;;
68579;SDS011;55555;52.136;5.424;2022-11-18T16:54:36;41.03;;;23.80;;
68579;SDS011;55555;52.136;5.424;2022-11-18T16:57:11;40.67;;;25.40;;
68579;SDS011;55555;52.136;5.424;2022-11-18T16:59:39;49.25;;;26.02;;
68579;SDS011;55555;52.136;5.424;2022-11-18T17:02:09;55.28;;;29.17;;
68579;SDS011;55555;52.136;5.424;2022-11-18T17:04:39;65.90;;;36.72;;
68579;SDS011;55555;52.136;5.424;2022-11-18T17:07:06;54.37;;;31.23;;